Isle la Motte, Vermont
Current Conditions -  °F | °C
As of 6:55 PM on Monday 22 Dec 2014 (Local Time) from KFSO Reporting Station
Overcast Overcast  
Wind Chill: 21°   Ceiling: 4100
Heat Index: 21°   Visibility: 7mi
Dew Point: 18°   Wind: 0mph
Humidity: 88%   Direction: NA
Pressure: 30.31"   Gusts: NA
Location:  44.88°N, 73.34°W
Report Text: KFSO 222355Z AUTO 00000KT 7SM OVC041 M06/M08 A3031 RMK AO2 T10631080 11057 21070
Loading
Personal Weather Stations






























Interactive Weather Map New forecast layout! Learn more

10-Day Weather Forecast

Advertisements
Track Severe Weather on mobile